SEST

Details ICAO SEST (SCY)
Name Galapagos - San Cristobal
Region Equador
Timezone Pacific/Galapagos (UTC-6.0)
Plans Departing 9
Arriving 21
Stats Elevation 62 ft / 19 m (AMSL)
Location -0.910206° -89.617450°
Runways 1
Magnetic Variation 3.218° E
Sunrise 2018-05-22 11:54:23 UTC / 2018-05-22 05:54:23 Local
Sunset 2018-05-22 23:58:47 UTC / 2018-05-22 17:58:47 Local
Advertisement - Login to hide

Runways

ID Width Length Bearing (true) Bearing (mag) Surface Threshold Offset Overrun Length
16 66 ft / 20 m 6,248 ft / 1,904 m 169.47° 166.25° Asphalt 0 ft / 0 m 0 ft / 0 m
34 66 ft / 20 m 6,248 ft / 1,904 m 349.47° 346.25° Asphalt 0 ft / 0 m 0 ft / 0 m

Map

Weather


0- 5 10 15 20 25 30 35+ Temperature / ° C

Clouds and Precipitation
Forecast for 2018-05-22 18:00 UTC. Updated 5 hours ago

Ground ~20,000 ft ~40,000 ft Winds

METAR

SEST 222100Z 15010KT 9999 FEW026 SCT100 BKN330 27/22 Q1009 RMK A2983

TAF

Not found

Frequencies

Tower 122.50 MHz TWR
Warning: Do not use this data for real-world aviation or navigation. No guarantee of current accuracy is given.